Time;durP1;ratioP1;P1;durP2;ratioP2;P2;SDS_P1;SDS_P2;PMS_P1;PMS_P2;Temp;Humidity;BMP_temperature;BMP_pressure;BME280_temperature;BME280_humidity;BME280_pressure;Samples;Min_cycle;Max_cycle;Signal;HPM_P1;HPM_P2
2022/04/21 00:00:44;;;;;;;22.85;13.10;;;;;;;3.17;66.45;98965.94;4277572;33;33543;-67
2022/04/21 00:03:13;;;;;;;23.73;13.70;;;;;;;2.87;68.22;98968.97;4288963;33;35076;-67
2022/04/21 00:05:41;;;;;;;22.30;12.75;;;;;;;2.77;69.12;98974.81;4288843;33;34636;-67
2022/04/21 00:08:10;;;;;;;20.02;10.13;;;;;;;2.87;69.48;98970.69;4289694;33;33717;-67
2022/04/21 00:10:38;;;;;;;18.37;10.50;;;;;;;3.79;64.92;98966.66;4288833;33;33845;-67
2022/04/21 00:13:07;;;;;;;17.40;10.32;;;;;;;3.67;64.17;98969.09;4289626;33;35803;-67
2022/04/21 00:15:34;;;;;;;20.25;10.35;;;;;;;3.80;63.79;98964.13;4289085;33;34501;-67
2022/04/21 00:18:03;;;;;;;18.85;10.40;;;;;;;3.36;64.98;98958.47;4290105;33;33842;-67
2022/04/21 00:20:31;;;;;;;21.20;11.18;;;;;;;3.08;66.04;98962.41;4277210;33;33994;-67
2022/04/21 00:25:46;;;;;;;21.45;10.98;;;;;;;3.19;66.44;98969.44;4289218;33;33812;-67
2022/04/21 00:28:14;;;;;;;19.35;9.98;;;;;;;2.95;67.36;98971.69;4291267;33;34338;-67
2022/04/21 00:30:42;;;;;;;23.33;11.88;;;;;;;3.02;67.68;98970.91;4289359;33;34651;-67
2022/04/21 00:33:10;;;;;;;24.45;12.40;;;;;;;2.53;69.14;98960.78;4291292;33;34992;-67
2022/04/21 00:35:38;;;;;;;24.83;12.48;;;;;;;2.61;69.89;98966.03;4289412;33;34229;-67
2022/04/21 00:38:06;;;;;;;18.08;9.68;;;;;;;2.32;71.58;98961.31;4291265;33;33550;-67
2022/04/21 00:40:34;;;;;;;18.85;9.85;;;;;;;3.44;67.32;98964.56;4289497;33;33654;-67
2022/04/21 00:43:02;;;;;;;17.55;10.38;;;;;;;3.54;65.82;98961.25;4291257;33;35036;-67
2022/04/21 00:45:31;;;;;;;18.77;11.07;;;;;;;3.65;63.85;98956.22;4290745;33;35175;-67
2022/04/21 00:48:02;;;;;;;16.92;10.13;;;;;;;2.74;66.63;98951.66;4291085;33;32828;-67
2022/04/21 00:50:32;;;;;;;22.62;9.73;;;;;;;3.36;64.98;98963.63;4279080;33;33700;-67
2022/04/21 00:53:01;;;;;;;16.58;10.18;;;;;;;3.48;64.33;98953.47;4289833;33;35842;-67
2022/04/21 00:55:30;;;;;;;25.08;13.35;;;;;;;2.27;68.65;98950.09;4291405;33;35322;-67
2022/04/21 00:58:01;;;;;;;21.45;12.15;;;;;;;2.43;69.53;98949.47;4284076;33;33042;-67
2022/04/21 01:00:29;;;;;;;15.63;9.82;;;;;;;2.84;68.42;98959.53;4276823;33;34025;-67
2022/04/21 01:02:58;;;;;;;22.20;10.57;;;;;;;3.56;65.42;98951.81;4290103;33;36022;-67
2022/04/21 01:05:30;;;;;;;21.15;10.32;;;;;;;2.91;68.34;98955.34;4290903;33;35064;-67
2022/04/21 01:08:02;;;;;;;21.50;10.77;;;;;;;3.73;64.53;98951.16;4288326;33;34421;-67
2022/04/21 01:10:32;;;;;;;21.05;10.77;;;;;;;3.69;64.13;98952.84;4276727;33;34467;-66
2022/04/21 01:13:04;;;;;;;18.10;10.60;;;;;;;3.52;64.97;98955.22;4290188;33;35233;-67
2022/04/21 01:15:32;;;;;;;21.45;11.27;;;;;;;2.92;67.35;98945.91;4289957;33;34494;-67
2022/04/21 01:18:01;;;;;;;18.33;11.02;;;;;;;2.55;70.01;98950.53;4290026;33;33249;-67
2022/04/21 01:20:29;;;;;;;20.12;11.32;;;;;;;3.14;67.01;98952.19;4290709;33;33815;-67
2022/04/21 01:22:57;;;;;;;19.73;11.77;;;;;;;2.84;68.20;98954.38;4289020;33;35708;-67
2022/04/21 01:25:25;;;;;;;17.45;10.27;;;;;;;3.02;67.73;98947.78;4286340;33;34544;-67
2022/04/21 01:27:57;;;;;;;17.67;11.40;;;;;;;2.51;69.67;98948.75;4288699;33;33627;-67
2022/04/21 01:30:25;;;;;;;19.20;10.98;;;;;;;2.51;69.59;98952.19;4289742;33;33903;-68
2022/04/21 01:32:53;;;;;;;18.25;11.35;;;;;;;3.05;67.87;98950.34;4290016;33;35181;-67
2022/04/21 01:35:21;;;;;;;20.55;12.05;;;;;;;3.39;65.90;98943.94;4290816;33;34283;-67
2022/04/21 01:43:23;;;;;;;22.92;11.77;;;;;;;2.45;70.79;98949.50;4290814;33;36034;-67
2022/04/21 01:45:51;;;;;;;22.92;11.90;;;;;;;3.15;67.30;98939.34;4290203;33;34390;-67
2022/04/21 01:48:19;;;;;;;20.10;12.10;;;;;;;3.46;65.42;98939.72;4290676;33;34473;-67
2022/04/21 01:50:48;;;;;;;21.62;12.37;;;;;;;3.09;66.75;98939.28;4290686;33;34162;-67
2022/04/21 01:53:16;;;;;;;20.05;11.93;;;;;;;1.93;71.23;98944.38;4289859;33;35036;-67
2022/04/21 01:55:44;;;;;;;19.95;12.85;;;;;;;2.20;70.87;98943.13;4280118;33;34433;-67
2022/04/21 01:58:12;;;;;;;21.75;11.77;;;;;;;1.94;70.77;98938.44;4288720;33;34532;-67
2022/04/21 02:00:40;;;;;;;24.05;11.68;;;;;;;3.03;66.92;98939.19;4276428;33;34017;-67
2022/04/21 02:03:09;;;;;;;21.67;12.43;;;;;;;1.77;71.49;98942.41;4288623;33;35046;-66
2022/04/21 02:05:37;;;;;;;21.40;11.75;;;;;;;2.54;69.30;98935.94;4290712;33;34418;-66
2022/04/21 02:08:05;;;;;;;18.50;11.30;;;;;;;2.89;67.02;98933.00;4289756;33;33419;-67
2022/04/21 02:10:33;;;;;;;19.85;11.00;;;;;;;2.98;66.60;98930.53;4288971;33;34718;-67
2022/04/21 02:13:01;;;;;;;23.83;11.88;;;;;;;2.62;67.15;98931.78;4289665;33;36024;-67
2022/04/21 02:15:29;;;;;;;20.67;12.07;;;;;;;2.12;69.10;98929.28;4285425;33;173284;-67
2022/04/21 02:17:59;;;;;;;20.17;11.88;;;;;;;2.47;69.09;98919.56;4289423;33;34172;-67
2022/04/21 02:20:27;;;;;;;19.98;12.30;;;;;;;1.76;72.72;98922.69;4290425;33;33821;-67
2022/04/21 02:22:55;;;;;;;24.98;12.55;;;;;;;2.39;69.59;98919.44;4289623;33;35090;-66
2022/04/21 02:25:23;;;;;;;22.98;13.57;;;;;;;2.55;68.43;98925.69;4289579;33;33936;-67
2022/04/21 02:27:51;;;;;;;25.40;13.77;;;;;;;2.52;67.92;98922.19;4289711;33;33525;-67
2022/04/21 02:30:19;;;;;;;24.95;13.50;;;;;;;2.19;68.92;98916.56;4290466;33;33854;-67
2022/04/21 02:32:47;;;;;;;19.90;12.02;;;;;;;2.60;68.14;98923.19;4287700;33;34909;-67
2022/04/21 02:35:16;;;;;;;22.10;11.70;;;;;;;2.59;67.79;98916.31;4290397;33;34593;-67
2022/04/21 02:37:46;;;;;;;25.75;13.75;;;;;;;2.43;67.95;98918.63;4289306;33;33515;-66
2022/04/21 02:40:14;;;;;;;22.23;12.90;;;;;;;2.67;66.82;98919.84;4290485;33;33891;-67
2022/04/21 02:42:42;;;;;;;22.37;14.00;;;;;;;2.52;67.45;98914.50;4288308;33;34962;-67
2022/04/21 02:45:12;;;;;;;24.17;13.65;;;;;;;1.63;71.45;98916.47;4281358;33;34428;-67
2022/04/21 02:47:43;;;;;;;24.75;13.55;;;;;;;1.56;72.74;98917.19;4284470;33;32878;-67
2022/04/21 02:50:14;;;;;;;22.40;12.57;;;;;;;1.97;72.04;98917.06;4288459;33;33163;-66
2022/04/21 02:52:43;;;;;;;22.42;12.60;;;;;;;2.28;70.08;98915.88;4284394;33;35032;-66
2022/04/21 02:57:59;;;;;;;21.62;12.45;;;;;;;2.55;69.09;98914.53;4289497;33;34369;-73
2022/04/21 03:00:27;;;;;;;21.77;12.73;;;;;;;2.16;71.22;98910.53;4288478;33;33857;-72
2022/04/21 03:02:56;;;;;;;19.45;11.75;;;;;;;2.35;70.04;98911.66;4289429;33;34765;-69
2022/04/21 03:05:25;;;;;;;18.10;11.15;;;;;;;2.20;70.89;98912.28;4289919;33;34606;-70
2022/04/21 03:07:54;;;;;;;22.40;11.82;;;;;;;2.78;68.02;98909.72;4289198;33;33537;-66
2022/04/21 03:10:22;;;;;;;22.25;11.98;;;;;;;2.50;69.11;98918.75;4290144;33;34025;-69
2022/04/21 03:12:50;;;;;;;23.15;13.68;;;;;;;2.76;67.70;98913.97;4289228;33;35021;-72
2022/04/21 03:15:18;;;;;;;22.60;12.88;;;;;;;2.44;68.68;98911.81;4289153;33;34051;-67
2022/04/21 03:17:46;;;;;;;21.00;11.75;;;;;;;1.72;72.56;98918.34;4290155;33;34499;-66
2022/04/21 03:24:18;;;;;;;17.95;10.43;;;;;;;2.26;71.55;98913.25;4289851;33;33907;-66
2022/04/21 03:25:49;;;;;;;20.40;11.57;;;;;;;2.84;67.35;98909.78;4288275;33;34463;-66
2022/04/21 03:28:17;;;;;;;19.40;11.65;;;;;;;2.74;67.68;98910.53;4289096;33;34236;-67
2022/04/21 03:30:44;;;;;;;21.27;11.65;;;;;;;2.67;67.74;98914.72;4286535;33;34743;-66
2022/04/21 03:33:13;;;;;;;21.30;12.10;;;;;;;1.92;71.48;98922.09;4286030;33;35961;-67
2022/04/21 03:35:41;;;;;;;24.95;12.77;;;;;;;1.99;71.27;98918.81;4289950;33;34477;-66
2022/04/21 03:38:09;;;;;;;18.15;10.80;;;;;;;2.44;70.55;98917.81;4288976;33;33506;-65
2022/04/21 03:40:37;;;;;;;20.23;11.75;;;;;;;2.65;69.24;98918.97;4289884;33;34054;-66
2022/04/21 03:43:06;;;;;;;18.12;11.30;;;;;;;2.92;67.24;98922.75;4288993;33;35231;-66
2022/04/21 03:45:33;;;;;;;17.95;11.15;;;;;;;2.71;67.50;98916.47;4289761;33;35088;-66
2022/04/21 03:48:02;;;;;;;18.50;10.73;;;;;;;2.44;68.65;98915.25;4288212;33;34223;-66
2022/04/21 03:50:31;;;;;;;19.48;11.57;;;;;;;1.57;73.73;98930.06;4288585;33;34030;-66
2022/04/21 03:52:59;;;;;;;19.45;10.77;;;;;;;2.52;69.53;98919.63;4287628;33;35110;-66
2022/04/21 03:55:28;;;;;;;17.67;10.35;;;;;;;2.60;68.93;98923.19;4289636;33;34475;-66
2022/04/21 03:57:55;;;;;;;20.42;11.95;;;;;;;2.54;68.45;98917.94;4275856;33;32027;-66
2022/04/21 04:00:23;;;;;;;21.67;11.90;;;;;;;2.41;68.80;98927.19;4289068;33;33896;-66
2022/04/21 04:02:52;;;;;;;20.48;12.30;;;;;;;2.45;68.65;98923.81;4288715;33;35962;-65
2022/04/21 04:05:20;;;;;;;22.00;11.27;;;;;;;1.87;70.46;98928.84;4279503;33;34425;-66
2022/04/21 04:10:52;;;;;;;24.27;11.65;;;;;;;2.01;71.28;98935.13;4289600;33;34809;-65
2022/04/21 04:13:20;;;;;;;21.42;11.88;;;;;;;1.88;71.89;98935.75;4288616;33;36040;-71
2022/04/21 04:15:50;;;;;;;21.58;9.88;;;;;;;1.42;74.63;98934.91;4288224;33;34520;-72
2022/04/21 04:18:21;;;;;;;18.50;10.48;;;;;;;2.57;71.16;98933.41;4288402;33;33377;-70
2022/04/21 04:20:50;;;;;;;24.95;11.90;;;;;;;3.09;68.12;98934.13;4288444;33;33813;-69
2022/04/21 04:23:19;;;;;;;18.65;11.23;;;;;;;3.04;68.45;98931.50;4287052;33;33479;-72
2022/04/21 04:25:47;;;;;;;20.08;11.52;;;;;;;3.33;68.62;98927.56;4289166;33;34259;-69
2022/04/21 04:28:15;;;;;;;19.60;10.73;;;;;;;3.54;69.47;98939.81;4288580;33;34623;-71
2022/04/21 04:30:43;;;;;;;17.40;10.20;;;;;;;4.04;67.48;98938.56;4289267;33;33906;-73
2022/04/21 04:33:11;;;;;;;21.67;12.10;;;;;;;4.53;65.47;98944.13;4288146;33;35015;-72
2022/04/21 04:35:40;;;;;;;19.85;10.75;;;;;;;4.62;65.49;98944.19;4276089;33;34312;-66
2022/04/21 04:38:08;;;;;;;15.65;9.48;;;;;;;4.94;65.09;98938.34;4288395;33;33429;-67
2022/04/21 04:40:36;;;;;;;16.37;9.93;;;;;;;5.59;63.94;98941.22;4289052;33;34736;-67
2022/04/21 04:43:04;;;;;;;18.33;10.23;;;;;;;5.78;64.33;98937.81;4288313;33;35087;-66
2022/04/21 04:48:19;;;;;;;16.17;9.15;;;;;;;6.06;63.76;98950.81;4288361;33;34366;-67
2022/04/21 04:50:47;;;;;;;16.48;9.50;;;;;;;6.02;64.56;98946.53;4288150;33;33928;-67
2022/04/21 04:53:15;;;;;;;30.75;12.98;;;;;;;6.45;63.65;98947.38;4288817;33;34997;-67
2022/04/21 04:55:43;;;;;;;16.15;10.70;;;;;;;7.69;60.79;98937.50;4288986;33;34500;-67
2022/04/21 04:58:11;;;;;;;18.55;11.07;;;;;;;8.85;57.03;98942.69;4288050;33;33616;-67
2022/04/21 05:00:39;;;;;;;22.70;12.82;;;;;;;8.20;59.16;98944.09;4288911;33;34785;-67
2022/04/21 05:03:07;;;;;;;20.90;11.30;;;;;;;8.02;60.04;98945.94;4290789;33;34973;-67
2022/04/21 05:05:35;;;;;;;22.48;12.13;;;;;;;7.93;60.80;98943.44;4290944;33;35139;-66
2022/04/21 05:08:05;;;;;;;19.80;12.35;;;;;;;7.65;62.80;98950.50;4288658;33;33622;-66
2022/04/21 05:10:34;;;;;;;18.12;10.77;;;;;;;8.26;61.96;98941.44;4291050;33;34611;-67
2022/04/21 05:13:02;;;;;;;21.60;12.70;;;;;;;8.41;63.38;98950.84;4290770;33;34885;-67
2022/04/21 05:15:30;;;;;;;21.23;12.15;;;;;;;8.90;62.87;98947.84;4290716;33;35324;-67
2022/04/21 05:17:59;;;;;;;19.83;12.15;;;;;;;8.54;61.61;98953.38;4290764;33;33684;-68
2022/04/21 05:20:27;;;;;;;21.37;11.80;;;;;;;9.09;58.26;98951.97;4289498;33;33883;-70
2022/04/21 05:23:06;;;;;;;17.75;11.63;;;;;;;10.26;56.34;98946.94;4290603;33;35860;-67
2022/04/21 05:25:36;;;;;;;20.92;11.60;;;;;;;9.78;55.48;98952.00;4276058;33;35282;-68
2022/04/21 05:28:06;;;;;;;20.95;10.55;;;;;;;9.74;54.39;98952.88;4284059;33;33504;-67
2022/04/21 05:30:58;;;;;;;17.33;10.52;;;;;;;10.31;51.68;98945.16;4290231;33;33908;-67
2022/04/21 05:33:28;;;;;;;16.98;10.50;;;;;;;10.89;50.85;98947.63;4284630;33;35164;-67
2022/04/21 05:35:58;;;;;;;18.65;11.38;;;;;;;10.92;51.42;98942.37;4290911;33;35052;-68
2022/04/21 05:38:26;;;;;;;17.37;10.85;;;;;;;11.05;52.24;98948.19;4289941;33;33587;-68
2022/04/21 05:40:54;;;;;;;16.55;10.60;;;;;;;10.48;52.43;98941.41;4277492;33;34227;-72
2022/04/21 05:43:28;;;;;;;19.00;11.00;;;;;;;10.56;53.04;98932.59;4278971;33;34929;-67
2022/04/21 05:45:56;;;;;;;14.65;9.63;;;;;;;11.81;53.10;98924.91;4290773;33;34733;-68
2022/04/21 05:48:25;;;;;;;15.50;10.18;;;;;;;11.26;55.02;98926.94;4289968;33;34296;-67
2022/04/21 05:50:58;;;;;;;16.98;9.70;;;;;;;11.65;51.98;98934.81;4290916;33;33982;-68
2022/04/21 05:53:27;;;;;;;16.55;10.45;;;;;;;11.91;50.92;98931.69;4289833;33;35072;-67
2022/04/21 05:55:55;;;;;;;16.27;10.40;;;;;;;11.72;52.86;98932.94;4280287;33;35349;-68
2022/04/21 05:58:24;;;;;;;28.20;15.23;;;;;;;11.90;47.44;98939.50;4284112;33;33604;-68
2022/04/21 06:00:53;;;;;;;27.08;15.60;;;;;;;12.15;44.57;98934.59;4290632;33;34656;-68
2022/04/21 06:03:26;;;;;;;27.05;16.20;;;;;;;12.41;47.37;98935.72;4289880;33;36008;-68
2022/04/21 06:05:54;;;;;;;13.82;9.50;;;;;;;12.67;47.52;98935.94;4290534;33;34511;-68
2022/04/21 06:08:22;;;;;;;15.70;9.95;;;;;;;12.85;46.11;98928.50;4289710;33;34371;-68
2022/04/21 06:10:50;;;;;;;18.20;8.85;;;;;;;13.86;43.63;98934.37;4289896;33;33933;-68
2022/04/21 06:13:18;;;;;;;13.73;9.27;;;;;;;13.90;42.09;98933.37;4288967;33;35892;-68
2022/04/21 06:15:46;;;;;;;15.82;10.05;;;;;;;13.93;43.13;98935.91;4277333;33;34327;-68
2022/04/21 06:18:14;;;;;;;13.93;9.07;;;;;;;14.93;41.10;98937.88;4282516;33;33614;-68
2022/04/21 06:20:42;;;;;;;16.40;9.10;;;;;;;14.14;41.32;98932.63;4290377;33;34003;-68
2022/04/21 06:23:10;;;;;;;15.45;9.63;;;;;;;14.03;42.10;98942.59;4288502;33;34574;-68
2022/04/21 06:25:42;;;;;;;15.10;9.65;;;;;;;14.09;41.76;98933.66;4290591;33;35353;-68
2022/04/21 06:28:11;;;;;;;17.65;9.85;;;;;;;14.74;42.28;98935.06;4289365;33;34415;-68
2022/04/21 06:30:39;;;;;;;12.00;8.30;;;;;;;15.20;39.32;98930.81;4288114;33;34826;-68
2022/04/21 06:33:07;;;;;;;15.40;8.15;;;;;;;15.42;38.25;98933.50;4272002;33;35232;-68
2022/04/21 06:35:35;;;;;;;11.48;6.53;;;;;;;15.71;38.40;98921.91;4290423;33;34913;-68
2022/04/21 06:38:03;;;;;;;10.70;6.87;;;;;;;16.23;36.35;98918.16;4289618;33;33404;-69
2022/04/21 06:40:32;;;;;;;11.93;7.15;;;;;;;16.00;38.34;98919.94;4290727;33;33985;-68
2022/04/21 06:43:02;;;;;;;11.43;6.62;;;;;;;15.72;37.44;98923.63;4289679;33;35061;-68
2022/04/21 06:48:25;;;;;;;;;;;;;;;17.86;35.31;98915.47;4289784;33;33355;-68
2022/04/21 06:50:54;;;;;;;7.68;4.03;;;;;;;17.27;34.16;98917.28;4290498;33;34092;-68
2022/04/21 06:53:22;;;;;;;7.03;3.97;;;;;;;16.98;32.34;98916.81;4289583;33;35040;-69
2022/04/21 06:55:50;;;;;;;6.93;4.00;;;;;;;17.13;33.72;98912.63;4290212;33;35236;-69
2022/04/21 06:58:18;;;;;;;5.40;3.90;;;;;;;17.93;32.14;98915.12;4289485;33;34545;-68
2022/04/21 07:00:47;;;;;;;4.97;3.80;;;;;;;16.89;34.49;98912.81;4283837;33;34811;-68
2022/04/21 07:03:15;;;;;;;7.97;3.53;;;;;;;16.89;33.95;98906.69;4280764;33;35913;-69
2022/04/21 07:05:44;;;;;;;5.32;3.60;;;;;;;17.01;33.07;98908.75;4281336;33;35191;-69
2022/04/21 07:08:13;;;;;;;6.32;3.75;;;;;;;17.61;30.62;98912.19;4280163;33;33489;-69
2022/04/21 07:10:42;;;;;;;8.98;3.92;;;;;;;17.75;31.59;98913.31;4290202;33;34053;-69
2022/04/21 07:13:11;;;;;;;7.50;3.92;;;;;;;16.56;31.76;98908.03;4289402;33;35054;-69
2022/04/21 07:15:42;;;;;;;6.72;3.67;;;;;;;16.99;32.48;98911.47;4284197;33;35087;-69
2022/04/21 07:18:14;;;;;;;5.90;3.40;;;;;;;17.08;30.60;98918.09;4268544;33;34257;-69
2022/04/21 07:20:42;;;;;;;6.15;3.72;;;;;;;16.19;30.84;98906.94;4290047;33;34818;-69
2022/04/21 07:23:09;;;;;;;5.25;3.17;;;;;;;18.08;30.51;98910.87;4289296;33;35741;-69
2022/04/21 07:25:39;;;;;;;4.82;3.37;;;;;;;17.50;32.42;98922.34;4290002;33;35251;-69
2022/04/21 07:28:07;;;;;;;5.03;3.30;;;;;;;17.07;30.26;98915.56;4289168;33;34146;-69
2022/04/21 07:30:35;;;;;;;6.25;3.58;;;;;;;16.84;30.19;98912.16;4287716;33;33777;-68
2022/04/21 07:33:03;;;;;;;6.22;3.83;;;;;;;17.18;32.37;98911.50;4277408;33;34902;-69
2022/04/21 07:35:34;;;;;;;5.57;3.70;;;;;;;17.88;29.24;98914.50;4289990;33;35286;-69
2022/04/21 07:38:02;;;;;;;5.15;3.25;;;;;;;17.86;30.16;98920.75;4289325;33;33546;-69
2022/04/21 07:40:32;;;;;;;6.80;3.92;;;;;;;17.26;30.29;98913.81;4285870;33;33966;-69
2022/04/21 07:43:03;;;;;;;6.62;4.35;;;;;;;17.77;29.05;98914.09;4277938;33;34993;-69
2022/04/21 07:45:32;;;;;;;6.70;4.43;;;;;;;18.03;27.93;98919.94;4297715;33;34398;-69
2022/04/21 07:48:00;;;;;;;5.37;4.12;;;;;;;18.81;27.56;98913.41;4284876;33;33965;-69
2022/04/21 07:50:29;;;;;;;9.85;3.75;;;;;;;17.65;31.37;98905.00;4289914;33;33980;-69
2022/04/21 07:53:18;;;;;;;6.50;3.90;;;;;;;19.13;29.12;98911.78;4289084;33;35824;-69
2022/04/21 07:55:48;;;;;;;5.78;3.50;;;;;;;19.02;27.35;98915.91;4289127;33;35196;-69
2022/04/21 07:58:16;;;;;;;7.15;4.87;;;;;;;18.67;28.23;98922.06;4287816;33;34268;-69
2022/04/21 08:00:44;;;;;;;6.72;4.05;;;;;;;18.52;28.63;98909.63;4289826;33;34150;-69
2022/04/21 08:03:18;;;;;;;11.88;3.65;;;;;;;18.12;28.82;98912.44;4288116;33;34954;-68
2022/04/21 08:05:46;;;;;;;6.07;4.22;;;;;;;18.16;28.84;98907.91;4289584;33;34575;-69
2022/04/21 08:08:14;;;;;;;5.75;3.45;;;;;;;19.09;26.23;98902.31;4288632;33;34356;-69
2022/04/21 08:10:42;;;;;;;6.10;4.10;;;;;;;18.75;28.87;98905.81;4288402;33;34825;-69
2022/04/21 08:13:16;;;;;;;7.85;4.32;;;;;;;18.43;26.98;98916.22;4287987;33;35183;-69
2022/04/21 08:15:48;;;;;;;5.70;4.15;;;;;;;18.53;28.35;98912.19;4289774;33;35215;-69
2022/04/21 08:18:17;;;;;;;9.70;4.90;;;;;;;18.08;29.63;98915.31;4288622;33;33103;-68
2022/04/21 08:20:47;;;;;;;6.75;4.78;;;;;;;18.79;29.29;98919.72;4289342;33;33890;-68
2022/04/21 08:23:16;;;;;;;6.10;4.07;;;;;;;18.56;28.88;98925.22;4288880;33;34283;-68
2022/04/21 08:34:20;;;;;;;7.30;5.15;;;;;;;19.01;28.39;98920.34;4287354;33;35058;-68
2022/04/21 08:37:00;;;;;;;6.72;4.47;;;;;;;19.08;28.63;98919.09;4282401;33;34461;-67
2022/04/21 08:39:29;;;;;;;26.00;6.05;;;;;;;19.52;28.85;98913.22;4286634;33;33399;-68
2022/04/21 08:42:03;;;;;;;6.00;3.92;;;;;;;19.97;27.32;98904.66;4281949;33;34029;-70
2022/04/21 08:44:33;;;;;;;7.37;4.07;;;;;;;19.47;27.72;98899.41;4286910;33;36021;-70
2022/04/21 08:47:02;;;;;;;7.03;4.87;;;;;;;19.81;27.76;98908.16;4291119;33;35344;-68
2022/04/21 08:49:33;;;;;;;8.18;4.07;;;;;;;18.19;29.02;98910.37;4289023;33;33614;-68
2022/04/21 08:52:02;;;;;;;8.50;5.40;;;;;;;19.44;25.99;98911.94;4290169;33;33837;-68
2022/04/21 08:54:30;;;;;;;7.10;4.62;;;;;;;19.28;27.26;98919.81;4290955;33;34894;-68
2022/04/21 08:56:59;;;;;;;8.10;4.82;;;;;;;20.13;25.61;98910.75;4290099;33;35328;-68
2022/04/21 08:59:28;;;;;;;5.30;3.17;;;;;;;20.11;25.58;98919.72;4290965;33;33421;-69
2022/04/21 09:01:59;;;;;;;6.78;4.55;;;;;;;20.32;24.75;98912.38;4291026;33;33929;-69
2022/04/21 09:04:32;;;;;;;7.43;4.25;;;;;;;19.18;25.01;98919.44;4291053;33;36037;-69
2022/04/21 09:07:21;;;;;;;5.85;3.85;;;;;;;19.65;25.58;98913.41;4291003;33;34477;-69
2022/04/21 09:10:00;;;;;;;6.85;3.85;;;;;;;19.71;25.00;98912.19;4286764;33;34779;-69
2022/04/21 09:12:29;;;;;;;7.00;4.32;;;;;;;20.25;22.98;98911.87;4291035;33;35006;-68
2022/04/21 09:14:57;;;;;;;7.70;4.70;;;;;;;19.94;25.15;98908.34;4290031;33;35903;-69
2022/04/21 09:17:25;;;;;;;6.15;4.60;;;;;;;20.21;26.16;98920.94;4289875;33;34575;-68
2022/04/21 09:19:57;;;;;;;7.07;4.70;;;;;;;19.82;26.34;98924.88;4289825;33;34132;-69
2022/04/21 09:22:31;;;;;;;6.20;4.90;;;;;;;20.24;26.88;98921.59;4290687;33;33895;-69
2022/04/21 09:24:59;;;;;;;8.43;4.95;;;;;;;20.31;25.67;98916.78;4288619;33;35946;-68
2022/04/21 09:27:41;;;;;;;8.50;4.28;;;;;;;20.63;25.19;98911.47;4290772;33;35190;-68
2022/04/21 09:30:12;;;;;;;6.65;4.32;;;;;;;20.30;24.72;98917.75;4290101;33;33748;-69
2022/04/21 09:32:50;;;;;;;6.07;3.40;;;;;;;20.80;24.58;98918.41;4290957;33;33951;-68
2022/04/21 09:35:19;;;;;;;10.00;3.70;;;;;;;20.54;23.22;98923.41;4290481;33;33661;-68
2022/04/21 09:37:49;;;;;;;8.15;4.20;;;;;;;20.64;25.31;98927.22;4291058;33;34919;-68
2022/04/21 09:40:18;;;;;;;5.78;3.78;;;;;;;21.05;23.60;98928.34;4290026;33;34189;-68
2022/04/21 09:42:56;;;;;;;8.65;4.22;;;;;;;20.12;24.96;98918.78;4290881;33;34063;-69
2022/04/21 09:48:24;;;;;;;9.18;4.28;;;;;;;20.85;23.89;98916.31;4288905;33;35227;-69
2022/04/21 09:50:56;;;;;;;5.57;3.87;;;;;;;20.99;23.93;98912.84;4291136;33;33565;-68
2022/04/21 09:53:25;;;;;;;6.62;4.20;;;;;;;20.66;23.92;98916.56;4289101;33;34756;-68
2022/04/21 09:56:10;;;;;;;5.22;3.53;;;;;;;20.02;24.35;98907.88;4289453;33;34765;-69
2022/04/21 09:58:46;;;;;;;8.00;3.55;;;;;;;19.16;26.19;98896.72;4280302;33;34195;-68
2022/04/21 10:01:14;;;;;;;6.20;4.07;;;;;;;19.51;26.58;98900.94;4289743;33;34361;-69
2022/04/21 10:03:43;;;;;;;6.15;4.18;;;;;;;21.01;24.00;98901.22;4265145;33;33844;-69
2022/04/21 10:06:12;;;;;;;5.82;3.72;;;;;;;20.22;24.14;98902.34;4290657;33;35906;-68
2022/04/21 10:08:42;;;;;;;7.00;4.53;;;;;;;19.84;25.30;98894.78;4288499;33;34504;-70
2022/04/21 10:11:10;;;;;;;8.93;4.35;;;;;;;20.07;24.70;98890.00;4283044;33;32551;-69
2022/04/21 10:13:40;;;;;;;5.93;3.42;;;;;;;20.59;26.31;98894.03;4273604;33;33994;-69
2022/04/21 10:16:08;;;;;;;6.60;4.45;;;;;;;21.28;23.54;98897.81;4290448;33;35116;-68
2022/04/21 10:18:37;;;;;;;15.52;6.03;;;;;;;20.92;23.76;98901.78;4289720;33;34598;-68
2022/04/21 10:21:06;;;;;;;8.90;4.15;;;;;;;21.37;24.26;98896.41;4289336;33;33816;-68
2022/04/21 10:23:34;;;;;;;6.78;4.47;;;;;;;21.35;25.34;98893.88;4288251;33;34007;-70
2022/04/21 10:26:04;;;;;;;6.95;4.50;;;;;;;20.11;25.07;98888.03;4277351;33;34103;-68
2022/04/21 10:28:55;;;;;;;7.65;5.07;;;;;;;20.57;25.83;98886.19;4289076;33;35201;-68
2022/04/21 10:31:35;;;;;;;7.87;4.72;;;;;;;19.63;27.08;98882.72;4290517;33;33307;-68
2022/04/21 10:34:05;;;;;;;6.80;4.47;;;;;;;20.56;26.58;98883.63;4289502;33;34658;-68
2022/04/21 10:36:36;;;;;;;7.32;4.40;;;;;;;20.63;23.94;98885.88;4290542;33;35320;-68
2022/04/21 10:39:16;;;;;;;8.43;5.30;;;;;;;20.69;23.64;98895.22;4288401;33;34449;-68
2022/04/21 10:41:45;;;;;;;8.45;4.68;;;;;;;20.33;24.64;98890.25;4276199;33;33542;-68
2022/04/21 10:44:14;;;;;;;6.97;4.20;;;;;;;20.70;24.46;98872.25;4287093;33;34122;-68
2022/04/21 10:46:42;;;;;;;6.70;4.30;;;;;;;21.54;24.58;98876.84;4285272;33;35252;-68
2022/04/21 10:49:59;;;;;;;10.77;4.93;;;;;;;21.84;23.68;98874.00;4285348;33;35348;-69
2022/04/21 10:57:55;;;;;;;6.97;4.70;;;;;;;18.33;27.55;98860.44;4289500;33;35994;-68
2022/04/21 11:00:31;;;;;;;7.87;5.03;;;;;;;18.83;27.33;98856.22;4285699;33;34557;-68
2022/04/21 11:03:03;;;;;;;7.62;5.50;;;;;;;19.19;28.04;98857.81;4281964;33;33567;-68
2022/04/21 11:05:36;;;;;;;8.57;4.80;;;;;;;18.99;30.00;98856.25;4288300;33;34622;-69
2022/04/21 11:08:14;;;;;;;11.38;5.47;;;;;;;19.77;28.79;98852.94;4289351;33;35090;-68
2022/04/21 11:10:43;;;;;;;8.13;5.00;;;;;;;19.52;28.36;98855.13;4289059;33;33035;-71
2022/04/21 11:13:14;;;;;;;7.62;4.93;;;;;;;19.41;28.13;98852.22;4289436;33;34349;-68
2022/04/21 11:15:47;;;;;;;9.32;4.75;;;;;;;20.57;25.90;98857.09;4284166;33;33713;-69
2022/04/21 11:18:18;;;;;;;7.75;4.37;;;;;;;20.38;26.08;98860.00;4279672;33;34763;-68
2022/04/21 11:20:48;;;;;;;6.22;4.15;;;;;;;20.44;25.65;98858.78;4282312;33;34513;-68
2022/04/21 11:23:31;;;;;;;6.65;4.43;;;;;;;19.46;26.18;98849.31;4281934;33;33560;-68
2022/04/21 11:26:09;;;;;;;10.43;4.80;;;;;;;19.20;27.42;98848.09;4290230;33;33922;-68
2022/04/21 11:28:46;;;;;;;8.02;4.65;;;;;;;20.17;25.74;98840.94;4289129;33;35052;-67
2022/04/21 11:31:14;;;;;;;8.15;3.97;;;;;;;19.53;28.46;98834.84;4282543;33;34538;-68
2022/04/21 11:33:44;;;;;;;6.05;4.53;;;;;;;20.08;26.31;98833.53;4281768;33;33586;-69
2022/04/21 11:36:14;;;;;;;6.75;4.60;;;;;;;20.17;27.20;98830.38;4288616;33;34007;-71
2022/04/21 11:38:49;;;;;;;6.20;4.22;;;;;;;19.87;26.19;98832.97;4289375;33;35024;-74
2022/04/21 11:41:17;;;;;;;6.82;4.50;;;;;;;20.08;26.15;98839.69;4278702;33;34584;-74
2022/04/21 11:43:50;;;;;;;6.97;4.20;;;;;;;20.54;26.20;98832.59;4281522;33;33642;-67
2022/04/21 11:46:21;;;;;;;5.75;4.40;;;;;;;20.00;26.05;98827.84;4289184;33;34878;-71
2022/04/21 11:49:00;;;;;;;10.57;4.85;;;;;;;20.67;26.00;98822.19;4281819;33;35166;-75
2022/04/21 11:51:28;;;;;;;6.47;4.32;;;;;;;19.63;25.16;98825.47;4289601;33;34544;-67
2022/04/21 11:54:06;;;;;;;5.25;3.58;;;;;;;18.58;26.58;98830.19;4288914;33;33486;-68
2022/04/21 11:56:35;;;;;;;6.18;4.35;;;;;;;19.34;25.22;98819.16;4288816;33;34011;-69
2022/04/21 11:59:08;;;;;;;8.25;4.68;;;;;;;19.71;25.68;98822.38;4289086;33;35163;-67
2022/04/21 12:07:17;;;;;;;9.20;3.97;;;;;;;19.60;27.06;98814.22;4289842;33;34017;-68
2022/04/21 12:09:46;;;;;;;7.12;5.03;;;;;;;19.51;26.66;98811.16;4288642;33;35080;-67
2022/04/21 12:12:20;;;;;;;6.65;4.70;;;;;;;19.20;26.42;98800.59;4287912;33;35345;-67
2022/04/21 12:14:49;;;;;;;7.03;5.22;;;;;;;19.43;26.66;98796.66;4287582;33;34289;-67
2022/04/21 12:17:20;;;;;;;9.10;4.75;;;;;;;19.05;27.28;98800.50;4289930;33;34688;-68
2022/04/21 12:19:48;;;;;;;9.82;4.75;;;;;;;19.85;26.85;98800.50;4288621;33;34258;-68
2022/04/21 12:22:18;;;;;;;7.28;4.70;;;;;;;19.58;26.68;98789.69;4289582;33;34821;-68
2022/04/21 12:24:51;;;;;;;6.75;4.53;;;;;;;19.74;27.43;98795.00;4288659;33;33601;-69
2022/04/21 12:27:24;;;;;;;10.00;5.30;;;;;;;19.60;26.86;98795.75;4289444;33;34026;-68